Time;durP1;ratioP1;P1;durP2;ratioP2;P2;SDS_P1;SDS_P2;PMS_P1;PMS_P2;Temp;Humidity;BMP_temperature;BMP_pressure;BME280_temperature;BME280_humidity;BME280_pressure;Samples;Min_cycle;Max_cycle;Signal;HPM_P1;HPM_P2
2022/12/29 00:00:05;;;;;;;4.90;1.67;;;7.10;24.50;;;;;;4958325;28;20485;-64
2022/12/29 00:02:32;;;;;;;5.27;2.20;;;7.20;24.70;;;;;;4952359;28;20478;-63
2022/12/29 00:04:59;;;;;;;5.10;2.07;;;7.20;24.70;;;;;;4957424;28;20469;-63
2022/12/29 00:07:27;;;;;;;5.10;2.17;;;7.20;24.70;;;;;;4956050;28;20473;-63
2022/12/29 00:09:53;;;;;;;5.97;2.43;;;7.20;24.70;;;;;;4958646;28;20496;-63
2022/12/29 00:12:21;;;;;;;6.80;2.30;;;7.20;24.70;;;;;;4955958;28;20492;-64
2022/12/29 00:17:32;;;;;;;5.97;1.93;;;7.20;24.60;;;;;;4952723;28;20508;-63
2022/12/29 00:36:40;;;;;;;5.50;2.40;;;7.10;24.90;;;;;;4957528;28;20843;-63
2022/12/29 00:44:40;;;;;;;5.23;2.30;;;7.00;24.60;;;;;;4966590;28;20976;-63
2022/12/29 00:47:06;;;;;;;6.20;2.67;;;7.10;24.30;;;;;;4967343;28;20458;-63
2022/12/29 00:49:32;;;;;;;7.30;2.60;;;7.00;24.10;;;;;;4968713;28;20492;-63
2022/12/29 00:52:01;;;;;;;5.57;1.97;;;7.00;23.80;;;;;;4969158;28;20466;-63
2022/12/29 00:54:31;;;;;;;6.73;2.43;;;7.00;23.90;;;;;;4971824;28;20213;-63
2022/12/29 00:56:58;;;;;;;5.53;1.87;;;7.00;23.40;;;;;;4966525;28;20486;-63
2022/12/29 00:59:26;;;;;;;6.50;2.20;;;7.00;23.50;;;;;;4965464;28;20482;-63
2022/12/29 01:01:54;;;;;;;8.00;2.40;;;7.00;23.40;;;;;;4966058;28;20484;-63
2022/12/29 01:04:22;;;;;;;7.80;2.60;;;6.90;23.10;;;;;;4966245;28;20457;-63
2022/12/29 01:06:48;;;;;;;5.07;1.90;;;7.00;22.90;;;;;;4971628;28;20477;-63
2022/12/29 01:12:01;;;;;;;5.47;1.93;;;7.10;23.40;;;;;;4962450;28;20448;-63
2022/12/29 01:14:29;;;;;;;5.53;2.33;;;7.10;23.50;;;;;;4969689;28;20467;-63
2022/12/29 01:16:56;;;;;;;5.80;2.03;;;7.10;23.50;;;;;;4961945;28;20490;-63
2022/12/29 01:19:24;;;;;;;5.83;2.30;;;7.10;23.50;;;;;;4966248;28;20489;-63
2022/12/29 01:21:51;;;;;;;5.30;2.17;;;7.10;23.50;;;;;;4961784;28;20824;-63
2022/12/29 01:24:19;;;;;;;6.40;2.30;;;7.10;23.10;;;;;;4964656;28;20847;-63
2022/12/29 01:26:46;;;;;;;6.97;2.80;;;7.20;22.80;;;;;;4963300;28;20464;-63
2022/12/29 01:29:14;;;;;;;9.60;2.47;;;7.20;22.20;;;;;;4964335;28;20486;-63
2022/12/29 01:31:41;;;;;;;5.63;1.90;;;7.20;22.30;;;;;;4965958;28;20489;-63
2022/12/29 01:34:08;;;;;;;9.50;2.27;;;7.30;21.80;;;;;;4967998;28;20489;-63
2022/12/29 01:36:35;;;;;;;5.47;2.27;;;7.30;22.00;;;;;;4967931;28;20847;-63
2022/12/29 01:39:02;;;;;;;5.03;1.87;;;7.40;21.80;;;;;;4968311;28;20724;-63
2022/12/29 01:41:29;;;;;;;5.60;2.30;;;7.30;22.20;;;;;;4967959;28;20473;-63
2022/12/29 01:43:59;;;;;;;6.70;1.80;;;7.30;22.10;;;;;;4965196;28;20457;-64
2022/12/29 01:46:30;;;;;;;4.60;1.70;;;7.30;22.40;;;;;;4966166;28;20528;-63
2022/12/29 01:49:03;;;;;;;5.33;2.17;;;7.30;22.20;;;;;;4967024;28;20485;-63
2022/12/29 01:51:34;;;;;;;5.30;2.60;;;7.30;22.60;;;;;;4969170;28;20479;-63
2022/12/29 01:54:04;;;;;;;6.50;2.40;;;7.30;22.70;;;;;;4960394;28;20470;-63
2022/12/29 01:56:31;;;;;;;5.20;2.23;;;7.20;22.90;;;;;;4962022;28;20485;-63
2022/12/29 01:59:04;;;;;;;5.80;3.00;;;7.20;23.00;;;;;;4966781;28;20488;-63
2022/12/29 02:01:33;;;;;;;6.50;2.60;;;7.20;22.90;;;;;;4965136;28;20480;-63
2022/12/29 02:04:00;;;;;;;6.27;2.47;;;7.20;23.00;;;;;;4967288;28;20469;-63
2022/12/29 02:06:32;;;;;;;4.67;1.90;;;7.20;23.30;;;;;;4965154;28;20480;-64
2022/12/29 02:08:59;;;;;;;6.80;2.63;;;7.20;23.30;;;;;;4968349;28;20508;-63
2022/12/29 02:11:29;;;;;;;5.37;1.93;;;7.20;23.00;;;;;;4965657;28;20461;-63
2022/12/29 02:13:57;;;;;;;6.80;1.93;;;7.20;22.50;;;;;;4963856;28;21028;-63
2022/12/29 02:16:48;;;;;;;4.73;2.07;;;7.30;22.20;;;;;;4963616;28;20481;-64
2022/12/29 02:19:46;;;;;;;5.03;1.67;;;7.30;22.30;;;;;;4967524;28;20482;-64
2022/12/29 02:22:25;;;;;;;5.00;2.03;;;7.30;22.50;;;;;;4933789;28;20458;-63
2022/12/29 02:25:27;;;;;;;6.53;2.30;;;7.30;22.20;;;;;;4963267;28;20459;-63
2022/12/29 02:28:15;;;;;;;6.07;2.57;;;7.30;22.40;;;;;;4957521;28;20465;-64
2022/12/29 02:30:53;;;;;;;4.53;1.70;;;7.20;22.40;;;;;;4959315;28;20813;-64
2022/12/29 02:33:29;;;;;;;5.10;1.97;;;7.20;22.40;;;;;;4963724;28;20476;-63
2022/12/29 02:36:07;;;;;;;4.30;1.80;;;7.20;22.70;;;;;;4970921;28;20843;-63
2022/12/29 02:38:45;;;;;;;7.43;1.83;;;7.20;22.50;;;;;;4958914;28;20488;-63
2022/12/29 02:41:21;;;;;;;4.67;1.40;;;7.20;22.60;;;;;;4970576;28;20461;-63
2022/12/29 02:43:55;;;;;;;5.67;2.00;;;7.20;22.00;;;;;;4961990;28;20552;-63
2022/12/29 02:46:32;;;;;;;4.27;1.50;;;7.20;21.70;;;;;;4971072;28;20507;-63
2022/12/29 02:49:06;;;;;;;4.50;1.50;;;7.30;21.40;;;;;;4968385;28;20481;-63
2022/12/29 02:51:39;;;;;;;4.50;1.60;;;7.30;21.50;;;;;;4962514;28;21058;-63
2022/12/29 02:56:50;;;;;;;4.60;1.57;;;7.40;20.90;;;;;;4966116;28;20638;-63
2022/12/29 02:59:17;;;;;;;5.80;1.87;;;7.40;21.10;;;;;;4972545;28;20727;-64
2022/12/29 03:02:20;;;;;;;5.13;1.70;;;7.40;21.10;;;;;;4962694;28;20855;-63
2022/12/29 03:05:04;;;;;;;4.07;1.27;;;7.40;20.90;;;;;;4964774;28;20457;-63
2022/12/29 03:07:40;;;;;;;4.40;1.50;;;7.40;20.80;;;;;;4962332;28;20454;-63
2022/12/29 03:10:18;;;;;;;4.17;1.30;;;7.40;20.30;;;;;;4962354;28;20500;-63
2022/12/29 03:16:00;;;;;;;4.33;1.37;;;7.50;19.70;;;;;;4962672;28;20593;-63
2022/12/29 03:18:38;;;;;;;6.33;1.60;;;7.50;19.60;;;;;;4963577;28;20513;-63
2022/12/29 03:21:12;;;;;;;5.37;1.20;;;7.50;19.60;;;;;;4967560;28;20469;-63
2022/12/29 03:23:41;;;;;;;4.90;1.70;;;7.60;19.50;;;;;;4963333;28;20470;-63
2022/12/29 03:26:11;;;;;;;4.00;1.30;;;7.60;19.70;;;;;;4969029;28;20461;-63
2022/12/29 03:28:41;;;;;;;4.37;1.40;;;7.60;19.50;;;;;;4964712;28;20893;-63
2022/12/29 03:31:08;;;;;;;4.70;1.53;;;7.60;19.50;;;;;;4966726;28;20481;-63
2022/12/29 03:33:40;;;;;;;4.40;1.40;;;7.70;19.20;;;;;;4959655;28;20458;-63
2022/12/29 03:36:11;;;;;;;5.70;1.83;;;7.70;18.80;;;;;;4969552;28;22655;-63
2022/12/29 03:38:44;;;;;;;3.70;1.00;;;7.80;18.80;;;;;;4964000;28;20489;-63
2022/12/29 03:41:15;;;;;;;4.10;1.27;;;7.80;19.00;;;;;;4964326;28;20462;-63
2022/12/29 03:43:42;;;;;;;5.27;1.23;;;7.80;18.80;;;;;;4961165;28;20469;-64
2022/12/29 03:46:09;;;;;;;5.33;1.70;;;7.90;18.90;;;;;;4962943;28;20468;-63
2022/12/29 03:48:37;;;;;;;4.27;1.30;;;7.90;18.60;;;;;;4963361;28;20478;-63
2022/12/29 03:51:04;;;;;;;4.00;1.17;;;7.90;18.70;;;;;;4962011;28;20458;-63
2022/12/29 03:53:31;;;;;;;4.17;1.30;;;8.00;18.60;;;;;;4963135;28;20477;-63
2022/12/29 03:55:57;;;;;;;3.80;1.07;;;8.10;18.50;;;;;;4966225;28;20465;-63
2022/12/29 03:58:24;;;;;;;3.90;1.03;;;8.10;18.50;;;;;;4963664;28;20486;-63
2022/12/29 04:00:51;;;;;;;3.80;1.10;;;8.10;18.30;;;;;;4963702;28;20482;-63
2022/12/29 04:03:17;;;;;;;4.40;1.00;;;8.20;18.40;;;;;;4965523;28;20464;-64
2022/12/29 04:05:46;;;;;;;4.50;1.23;;;8.20;18.40;;;;;;4963274;28;20458;-64
2022/12/29 04:08:12;;;;;;;3.70;1.20;;;8.30;18.50;;;;;;4969705;28;20482;-63
2022/12/29 04:10:39;;;;;;;5.10;1.27;;;8.30;18.30;;;;;;4965400;28;20915;-64
2022/12/29 04:13:06;;;;;;;5.00;1.13;;;8.40;18.30;;;;;;4969584;28;20480;-63
2022/12/29 04:15:33;;;;;;;4.43;1.70;;;8.40;18.40;;;;;;4960245;28;20474;-63
2022/12/29 04:17:59;;;;;;;5.00;1.30;;;8.40;18.20;;;;;;4961843;28;20488;-63
2022/12/29 04:23:12;;;;;;;4.53;1.30;;;8.50;18.30;;;;;;4961061;28;20529;-63
2022/12/29 04:25:38;;;;;;;4.67;1.30;;;8.50;18.40;;;;;;4960175;28;20462;-64
2022/12/29 04:28:07;;;;;;;4.17;1.17;;;8.50;18.50;;;;;;4961921;28;20838;-63
2022/12/29 04:30:34;;;;;;;7.80;1.90;;;8.60;18.60;;;;;;4957927;28;20492;-63
2022/12/29 04:33:01;;;;;;;4.93;1.73;;;8.60;18.80;;;;;;4961506;28;20473;-63
2022/12/29 04:35:27;;;;;;;4.37;1.60;;;8.60;18.60;;;;;;4967431;28;20465;-64
2022/12/29 04:37:54;;;;;;;4.70;1.23;;;8.60;18.60;;;;;;4958462;28;20485;-63
2022/12/29 04:40:23;;;;;;;4.23;1.43;;;8.70;18.70;;;;;;4955975;28;20462;-63
2022/12/29 04:42:50;;;;;;;5.73;1.40;;;8.60;18.50;;;;;;4959685;28;20465;-64
2022/12/29 04:45:17;;;;;;;5.50;1.17;;;8.70;18.50;;;;;;4958338;28;21067;-63
2022/12/29 04:47:43;;;;;;;5.87;1.70;;;8.70;18.70;;;;;;4961798;28;20458;-63
2022/12/29 04:50:10;;;;;;;4.50;1.40;;;8.70;18.80;;;;;;4970427;28;20998;-63
2022/12/29 04:52:37;;;;;;;4.03;1.60;;;8.70;18.80;;;;;;4968049;28;20500;-63
2022/12/29 04:55:05;;;;;;;4.20;1.67;;;8.70;18.90;;;;;;4959689;28;20462;-63
2022/12/29 04:57:34;;;;;;;5.43;2.10;;;8.80;18.80;;;;;;4961061;28;20504;-63
2022/12/29 05:00:01;;;;;;;3.90;1.17;;;8.80;19.10;;;;;;4964434;28;21027;-64
2022/12/29 05:02:28;;;;;;;8.43;1.77;;;8.80;19.10;;;;;;4946625;28;20564;-63
2022/12/29 05:04:54;;;;;;;4.33;1.50;;;8.80;19.10;;;;;;4963743;28;20517;-63
2022/12/29 05:07:21;;;;;;;5.53;1.30;;;8.80;19.00;;;;;;4957609;28;20460;-63
2022/12/29 05:09:48;;;;;;;5.00;1.60;;;8.80;19.20;;;;;;4967291;23;20494;-63
2022/12/29 05:12:14;;;;;;;4.67;1.20;;;8.80;19.30;;;;;;4950055;28;20466;-62
2022/12/29 05:14:42;;;;;;;5.77;2.10;;;8.80;19.40;;;;;;4946207;28;20472;-62
2022/12/29 05:17:09;;;;;;;7.27;1.50;;;8.80;19.40;;;;;;4946641;28;20482;-63
2022/12/29 05:19:37;;;;;;;4.03;1.23;;;8.70;19.70;;;;;;4947930;28;20489;-62
2022/12/29 05:22:04;;;;;;;4.53;1.37;;;8.70;19.70;;;;;;4945854;28;20481;-63
2022/12/29 05:24:31;;;;;;;5.47;1.60;;;8.70;19.80;;;;;;4942140;28;20462;-62
2022/12/29 05:26:58;;;;;;;4.37;1.20;;;8.70;19.90;;;;;;4945010;28;20821;-63
2022/12/29 05:29:25;;;;;;;4.10;1.40;;;8.70;20.00;;;;;;4939378;28;20490;-63
2022/12/29 05:31:54;;;;;;;4.90;1.57;;;8.70;20.30;;;;;;4944144;28;20478;-63
2022/12/29 05:34:21;;;;;;;5.10;1.60;;;8.70;20.40;;;;;;4943223;28;20467;-64
2022/12/29 05:36:47;;;;;;;6.30;1.60;;;8.70;20.50;;;;;;4945928;28;20462;-63
2022/12/29 05:39:14;;;;;;;5.37;1.23;;;8.70;20.70;;;;;;4944854;28;20486;-61
2022/12/29 05:41:41;;;;;;;6.67;1.70;;;8.70;21.00;;;;;;4944879;28;20477;-63
2022/12/29 05:44:08;;;;;;;6.67;2.00;;;8.60;20.90;;;;;;4945153;28;20473;-62
2022/12/29 05:46:34;;;;;;;5.80;1.87;;;8.70;21.10;;;;;;4944613;28;20466;-62
2022/12/29 05:49:03;;;;;;;5.17;1.70;;;8.60;21.30;;;;;;4945654;28;20455;-62
2022/12/29 05:51:30;;;;;;;5.07;2.03;;;8.60;21.40;;;;;;4945334;28;20485;-63
2022/12/29 05:53:57;;;;;;;5.00;1.73;;;8.60;21.50;;;;;;4943878;28;20458;-62
2022/12/29 05:56:24;;;;;;;5.27;1.73;;;8.60;21.60;;;;;;4945271;28;20987;-64
2022/12/29 05:58:51;;;;;;;4.40;1.53;;;8.60;21.60;;;;;;4943026;28;20489;-62
2022/12/29 06:01:18;;;;;;;4.10;1.30;;;8.60;21.80;;;;;;4944464;28;20486;-64
2022/12/29 06:03:44;;;;;;;4.50;1.53;;;8.60;21.90;;;;;;4945115;28;20463;-63
2022/12/29 06:06:12;;;;;;;5.20;1.40;;;8.60;22.00;;;;;;4946325;28;20466;-64
2022/12/29 06:08:39;;;;;;;3.97;1.53;;;8.50;22.00;;;;;;4946799;28;20481;-62
2022/12/29 06:11:06;;;;;;;4.80;1.50;;;8.50;22.20;;;;;;4945005;28;20490;-62
2022/12/29 06:13:33;;;;;;;6.90;1.73;;;8.50;22.40;;;;;;4942322;28;20466;-62
2022/12/29 06:15:59;;;;;;;4.97;1.70;;;8.50;22.50;;;;;;4945380;28;21168;-62
2022/12/29 06:18:26;;;;;;;4.40;1.30;;;8.50;22.60;;;;;;4947541;28;20489;-62
2022/12/29 06:20:53;;;;;;;4.10;1.50;;;8.50;22.70;;;;;;4949347;28;20501;-62
2022/12/29 06:23:21;;;;;;;4.17;1.40;;;8.50;22.80;;;;;;4947181;28;20463;-62
2022/12/29 06:25:49;;;;;;;5.43;1.80;;;8.50;23.10;;;;;;4948383;28;20473;-62
2022/12/29 06:28:16;;;;;;;4.43;1.50;;;8.50;23.20;;;;;;4948196;28;20518;-63
2022/12/29 06:30:45;;;;;;;7.60;1.67;;;8.50;23.40;;;;;;4946824;28;20493;-62
2022/12/29 06:33:11;;;;;;;5.13;1.80;;;8.50;23.50;;;;;;4948713;28;20469;-62
2022/12/29 06:35:38;;;;;;;6.83;1.53;;;8.50;23.60;;;;;;4948946;28;20469;-63
2022/12/29 06:38:05;;;;;;;4.53;1.60;;;8.50;23.70;;;;;;4951563;28;20501;-62
2022/12/29 06:40:33;;;;;;;4.50;1.33;;;8.50;23.80;;;;;;4947605;28;20482;-62
2022/12/29 06:43:00;;;;;;;5.70;1.70;;;8.50;24.00;;;;;;4948215;28;20467;-62
2022/12/29 06:45:27;;;;;;;4.77;1.63;;;8.50;24.10;;;;;;4942516;28;20458;-62
2022/12/29 06:47:53;;;;;;;4.80;1.90;;;8.50;24.10;;;;;;4947936;28;20458;-62
2022/12/29 06:50:20;;;;;;;5.63;1.77;;;8.50;24.20;;;;;;4943749;28;20486;-64
2022/12/29 06:52:47;;;;;;;4.40;1.47;;;8.50;24.50;;;;;;4948185;28;20470;-62
2022/12/29 06:55:14;;;;;;;4.83;1.80;;;8.40;24.60;;;;;;4945091;28;20462;-62
2022/12/29 06:57:42;;;;;;;4.57;1.90;;;8.40;24.70;;;;;;4945243;28;20489;-62
2022/12/29 07:00:10;;;;;;;8.00;2.60;;;8.40;24.60;;;;;;4947801;28;20528;-62
2022/12/29 07:02:37;;;;;;;5.10;1.90;;;8.40;24.70;;;;;;4947213;28;20497;-62
2022/12/29 07:05:04;;;;;;;5.07;1.73;;;8.40;24.70;;;;;;4945421;28;20469;-63
2022/12/29 07:07:31;;;;;;;6.00;2.10;;;8.40;24.70;;;;;;4949237;28;20466;-63
2022/12/29 07:09:57;;;;;;;7.07;2.27;;;8.40;24.80;;;;;;4947625;28;20502;-62
2022/12/29 07:12:24;;;;;;;5.17;2.23;;;8.50;24.80;;;;;;4948632;28;20475;-63
2022/12/29 07:14:52;;;;;;;6.50;2.07;;;8.50;24.80;;;;;;4947185;28;20467;-62
2022/12/29 07:17:19;;;;;;;5.77;1.87;;;8.50;24.80;;;;;;4943070;28;20463;-62
2022/12/29 07:19:46;;;;;;;4.60;2.00;;;8.40;24.90;;;;;;4946627;28;20497;-62
2022/12/29 07:22:12;;;;;;;5.40;1.80;;;8.40;24.90;;;;;;4942997;28;20471;-62
2022/12/29 07:24:39;;;;;;;6.53;2.30;;;8.50;25.00;;;;;;4946658;28;20549;-62
2022/12/29 07:27:06;;;;;;;5.60;1.80;;;8.50;25.10;;;;;;4944807;28;21136;-62
2022/12/29 07:29:33;;;;;;;6.17;2.00;;;8.50;24.90;;;;;;4953311;28;20480;-61
2022/12/29 07:32:01;;;;;;;5.20;1.80;;;8.50;24.60;;;;;;4945974;28;20489;-61
2022/12/29 07:34:28;;;;;;;5.40;1.83;;;8.60;24.40;;;;;;4944739;28;20490;-61
2022/12/29 07:36:55;;;;;;;5.60;2.23;;;8.60;24.20;;;;;;4945584;28;20462;-62
2022/12/29 07:39:22;;;;;;;5.10;1.50;;;8.70;24.00;;;;;;4947985;28;21029;-61
2022/12/29 07:41:49;;;;;;;8.30;2.00;;;8.70;23.90;;;;;;4942320;28;20479;-61
2022/12/29 07:44:16;;;;;;;6.63;2.27;;;8.80;23.70;;;;;;4944325;28;20469;-61
2022/12/29 07:46:42;;;;;;;5.37;2.37;;;8.90;23.40;;;;;;4945964;28;20458;-61
2022/12/29 07:49:10;;;;;;;5.30;1.80;;;9.00;23.10;;;;;;4940576;28;20844;-61
2022/12/29 07:51:37;;;;;;;4.80;2.10;;;9.00;22.60;;;;;;4945966;28;20849;-61
2022/12/29 07:54:04;;;;;;;8.43;2.73;;;9.10;22.40;;;;;;4946807;28;20467;-63
2022/12/29 07:56:31;;;;;;;5.03;1.73;;;9.10;22.50;;;;;;4944216;28;20469;-63
2022/12/29 07:58:58;;;;;;;4.93;2.17;;;9.20;22.40;;;;;;4943711;28;20495;-61
2022/12/29 08:01:24;;;;;;;7.73;3.10;;;9.30;22.30;;;;;;4944260;28;20486;-61
2022/12/29 08:03:51;;;;;;;8.57;2.60;;;9.40;21.90;;;;;;4942915;28;20768;-63
2022/12/29 08:06:19;;;;;;;6.30;2.10;;;9.50;22.00;;;;;;4942201;28;20963;-62
2022/12/29 08:08:46;;;;;;;8.60;2.50;;;9.70;21.50;;;;;;4939411;28;20915;-62
2022/12/29 08:11:13;;;;;;;6.00;2.00;;;10.00;21.00;;;;;;4944689;28;20541;-62
2022/12/29 08:13:40;;;;;;;5.67;2.30;;;10.50;20.00;;;;;;4952221;28;20466;-62
2022/12/29 08:16:07;;;;;;;5.87;2.23;;;10.90;18.90;;;;;;4942845;28;20455;-63
2022/12/29 08:18:34;;;;;;;5.53;2.80;;;11.00;18.30;;;;;;4945540;28;20486;-61
2022/12/29 08:21:03;;;;;;;6.97;2.43;;;10.90;17.80;;;;;;4944434;28;20494;-61
2022/12/29 08:23:31;;;;;;;6.77;2.50;;;10.80;17.90;;;;;;4945599;28;20848;-62
2022/12/29 08:25:59;;;;;;;6.87;2.10;;;10.70;17.80;;;;;;4942458;28;21022;-64
2022/12/29 08:28:26;;;;;;;7.27;2.30;;;10.60;17.70;;;;;;4943589;28;20469;-64
2022/12/29 08:30:52;;;;;;;6.17;2.80;;;10.60;17.90;;;;;;4938704;28;20550;-63
2022/12/29 08:33:19;;;;;;;4.93;2.10;;;10.50;18.10;;;;;;4945226;28;20967;-63
2022/12/29 08:35:46;;;;;;;5.03;1.83;;;10.50;18.40;;;;;;4946057;28;20982;-63
2022/12/29 08:38:13;;;;;;;5.43;2.30;;;10.40;18.30;;;;;;4943051;28;20487;-63
2022/12/29 08:40:41;;;;;;;6.10;1.90;;;10.40;18.30;;;;;;4943812;28;20482;-64
2022/12/29 08:43:08;;;;;;;5.70;1.83;;;10.40;18.40;;;;;;4941849;28;20463;-63
2022/12/29 08:45:34;;;;;;;4.80;1.73;;;10.40;18.50;;;;;;4941927;28;20467;-63
2022/12/29 08:48:01;;;;;;;7.17;2.70;;;10.50;18.30;;;;;;4943865;28;20458;-62
2022/12/29 08:50:28;;;;;;;6.00;1.67;;;10.50;18.60;;;;;;4943395;28;20490;-62
2022/12/29 08:52:54;;;;;;;6.40;2.03;;;10.50;18.60;;;;;;4941589;28;20462;-62
2022/12/29 08:55:21;;;;;;;5.50;1.77;;;10.60;18.40;;;;;;4945787;28;20466;-62
2022/12/29 08:57:49;;;;;;;7.33;3.00;;;10.70;18.40;;;;;;4943942;28;20470;-62
2022/12/29 09:00:16;;;;;;;5.63;1.90;;;10.70;18.50;;;;;;4942364;28;20499;-63
2022/12/29 09:02:43;;;;;;;5.30;2.10;;;10.80;18.30;;;;;;4942235;28;20490;-62
2022/12/29 09:05:10;;;;;;;4.40;1.63;;;10.90;18.30;;;;;;4941281;28;20475;-67
2022/12/29 09:07:37;;;;;;;5.07;1.90;;;11.00;18.10;;;;;;4941678;28;20659;-63
2022/12/29 09:10:05;;;;;;;5.43;2.03;;;11.10;18.00;;;;;;4942803;28;20856;-64
2022/12/29 09:12:32;;;;;;;8.63;2.40;;;11.20;17.90;;;;;;4942272;28;20482;-65
2022/12/29 09:15:00;;;;;;;6.63;1.57;;;11.30;17.60;;;;;;4946435;28;20459;-64
2022/12/29 09:17:43;;;;;;;6.77;2.13;;;11.40;17.40;;;;;;4947387;28;20467;-65
2022/12/29 09:20:10;;;;;;;8.33;2.60;;;11.40;17.70;;;;;;4943183;28;20522;-65
2022/12/29 09:22:37;;;;;;;6.53;1.90;;;11.50;17.50;;;;;;4947945;28;20473;-62
2022/12/29 09:25:05;;;;;;;6.27;1.73;;;11.50;17.50;;;;;;4943002;28;20481;-63
2022/12/29 09:27:32;;;;;;;7.17;2.20;;;11.70;17.60;;;;;;4943748;28;20475;-66
2022/12/29 09:30:00;;;;;;;5.67;1.90;;;11.80;17.50;;;;;;4946263;28;20494;-65
2022/12/29 09:32:27;;;;;;;5.40;2.30;;;11.90;17.10;;;;;;4941367;28;20491;-62
2022/12/29 09:34:53;;;;;;;5.97;1.60;;;12.10;17.10;;;;;;4947021;28;20505;-62
2022/12/29 09:37:21;;;;;;;6.97;1.90;;;12.30;16.60;;;;;;4945082;28;20978;-63
2022/12/29 09:39:48;;;;;;;5.53;2.13;;;12.40;16.30;;;;;;4947058;28;20852;-63
2022/12/29 09:42:20;;;;;;;10.10;1.80;;;12.50;16.20;;;;;;4943358;28;20997;-63
2022/12/29 09:44:58;;;;;;;4.83;1.90;;;12.70;16.00;;;;;;4947668;28;20462;-63
2022/12/29 09:47:27;;;;;;;6.17;2.03;;;12.90;15.40;;;;;;4943254;28;20458;-62
2022/12/29 09:49:57;;;;;;;10.20;2.23;;;13.10;15.50;;;;;;4948853;28;20485;-65
2022/12/29 09:52:29;;;;;;;6.90;1.83;;;13.50;15.00;;;;;;4939400;28;20463;-63
2022/12/29 09:54:58;;;;;;;6.07;2.13;;;14.00;14.30;;;;;;4947998;28;20490;-63
2022/12/29 09:57:28;;;;;;;5.07;1.90;;;14.60;13.50;;;;;;4947379;28;20467;-63
2022/12/29 09:59:59;;;;;;;4.30;1.60;;;15.20;11.50;;;;;;4955219;28;20485;-64
2022/12/29 10:02:37;;;;;;;5.30;1.50;;;15.40;10.30;;;;;;4950132;28;20513;-63
2022/12/29 10:05:25;;;;;;;5.00;1.60;;;15.50;10.30;;;;;;4950732;28;20465;-63
2022/12/29 10:08:04;;;;;;;4.60;2.00;;;15.60;10.00;;;;;;4943156;28;20467;-63
2022/12/29 10:10:38;;;;;;;5.33;1.60;;;15.50;9.70;;;;;;4951715;28;20493;-64
2022/12/29 10:13:19;;;;;;;6.70;1.40;;;15.50;10.40;;;;;;4947157;28;20487;-64
2022/12/29 10:15:56;;;;;;;4.83;1.30;;;15.60;9.80;;;;;;4942814;28;20466;-64
2022/12/29 10:18:41;;;;;;;9.20;1.73;;;15.50;9.80;;;;;;4947962;28;20561;-64
2022/12/29 10:21:18;;;;;;;4.83;1.50;;;15.30;10.00;;;;;;4951854;28;20486;-64
2022/12/29 10:23:46;;;;;;;6.00;1.70;;;15.10;10.40;;;;;;4956370;28;20469;-65
2022/12/29 10:26:16;;;;;;;3.97;1.40;;;14.90;10.50;;;;;;4953155;28;20459;-64
2022/12/29 10:28:48;;;;;;;7.20;1.70;;;14.70;10.60;;;;;;4949117;28;20473;-64
2022/12/29 10:31:20;;;;;;;6.13;1.80;;;14.70;11.40;;;;;;4946448;28;20475;-64
2022/12/29 10:33:52;;;;;;;5.40;1.73;;;15.10;11.50;;;;;;4951717;28;20581;-65
2022/12/29 10:36:21;;;;;;;6.60;1.67;;;15.70;10.20;;;;;;4946113;28;20486;-64
2022/12/29 10:39:05;;;;;;;4.97;1.70;;;16.20;9.60;;;;;;4949242;28;20487;-64
2022/12/29 10:41:40;;;;;;;5.80;1.73;;;16.40;9.00;;;;;;4950116;28;20506;-63
2022/12/29 10:44:11;;;;;;;5.10;1.50;;;16.50;8.70;;;;;;4935963;28;20466;-65
2022/12/29 10:46:38;;;;;;;4.23;1.40;;;16.80;8.30;;;;;;4937207;28;20880;-63
2022/12/29 10:49:13;;;;;;;4.30;1.50;;;17.30;7.40;;;;;;4944506;28;20486;-64
2022/12/29 10:51:43;;;;;;;5.90;1.80;;;17.80;6.90;;;;;;4946203;28;20975;-63
2022/12/29 10:54:15;;;;;;;4.30;1.30;;;18.30;6.20;;;;;;4943954;28;20474;-68
2022/12/29 10:56:47;;;;;;;5.70;1.70;;;18.70;5.80;;;;;;4944329;28;20470;-70
2022/12/29 10:59:20;;;;;;;5.60;1.90;;;18.80;5.00;;;;;;4944344;28;20494;-70
2022/12/29 11:01:57;;;;;;;6.70;1.67;;;18.60;5.20;;;;;;4944993;28;20487;-72
2022/12/29 11:04:42;;;;;;;8.07;1.70;;;18.00;5.40;;;;;;4938275;28;20465;-68
2022/12/29 11:07:10;;;;;;;6.63;1.93;;;17.50;6.00;;;;;;4950330;28;20463;-71
2022/12/29 11:09:40;;;;;;;4.80;1.50;;;17.30;6.80;;;;;;4952320;28;20493;-67
2022/12/29 11:12:21;;;;;;;5.10;1.80;;;17.00;6.80;;;;;;4957053;28;20462;-69
2022/12/29 11:14:48;;;;;;;6.63;1.47;;;16.60;7.50;;;;;;4979104;23;20613;-62
2022/12/29 11:17:18;;;;;;;6.77;1.90;;;16.30;8.50;;;;;;4965451;28;20541;-61
2022/12/29 11:19:46;;;;;;;6.23;1.70;;;16.10;8.70;;;;;;4966753;28;21007;-63
2022/12/29 11:22:15;;;;;;;4.83;1.70;;;15.80;9.30;;;;;;4961953;28;20971;-63
2022/12/29 11:24:47;;;;;;;6.17;2.07;;;15.60;9.60;;;;;;4961519;28;20485;-63
2022/12/29 11:27:17;;;;;;;5.67;1.50;;;15.40;10.00;;;;;;4963741;28;20454;-62
2022/12/29 11:29:46;;;;;;;5.50;1.83;;;15.20;10.60;;;;;;4962463;28;20966;-62
2022/12/29 11:32:18;;;;;;;5.30;1.50;;;14.90;10.90;;;;;;4962232;28;20482;-62
2022/12/29 11:34:46;;;;;;;6.30;1.33;;;14.80;11.30;;;;;;4959730;28;20487;-62
2022/12/29 11:37:16;;;;;;;5.83;1.47;;;14.60;12.00;;;;;;4969894;28;20469;-62
2022/12/29 11:39:51;;;;;;;5.60;1.83;;;14.50;12.80;;;;;;4962574;28;20482;-63
2022/12/29 11:42:20;;;;;;;7.20;1.80;;;14.40;12.40;;;;;;4964177;28;20461;-63
2022/12/29 11:44:49;;;;;;;6.23;1.60;;;14.30;12.90;;;;;;4963362;28;20512;-62
2022/12/29 11:47:29;;;;;;;4.33;1.40;;;14.20;13.10;;;;;;4960655;28;20469;-61
2022/12/29 11:50:02;;;;;;;6.20;1.70;;;14.10;13.20;;;;;;4960659;28;20494;-61
2022/12/29 11:52:34;;;;;;;5.20;1.50;;;14.00;13.60;;;;;;4961725;28;20461;-63
2022/12/29 11:55:03;;;;;;;4.90;1.67;;;13.90;13.40;;;;;;4963328;28;20547;-62
2022/12/29 11:57:31;;;;;;;4.90;1.80;;;13.80;14.10;;;;;;4959141;28;20469;-62
2022/12/29 12:00:00;;;;;;;4.73;1.57;;;13.80;14.30;;;;;;4964694;28;20481;-62
2022/12/29 12:02:41;;;;;;;13.07;2.70;;;13.80;14.70;;;;;;4963598;28;20480;-62
2022/12/29 12:05:20;;;;;;;6.63;2.07;;;13.80;14.80;;;;;;4965907;28;20497;-63
2022/12/29 12:07:50;;;;;;;4.70;1.50;;;13.70;14.80;;;;;;4965169;28;20462;-64
2022/12/29 12:10:25;;;;;;;5.70;1.60;;;13.70;14.70;;;;;;4967167;28;20512;-61
2022/12/29 12:13:04;;;;;;;6.47;2.00;;;13.70;15.40;;;;;;4960681;28;20487;-61
2022/12/29 12:15:38;;;;;;;6.23;2.00;;;13.70;15.10;;;;;;4955923;28;20835;-61
2022/12/29 12:18:10;;;;;;;8.43;1.60;;;13.70;15.40;;;;;;4962248;28;20489;-63
2022/12/29 12:20:45;;;;;;;4.93;1.67;;;13.80;15.10;;;;;;4963392;28;20549;-63
2022/12/29 12:23:20;;;;;;;5.93;2.00;;;13.80;15.50;;;;;;4957979;28;20476;-62
2022/12/29 12:25:58;;;;;;;4.70;1.70;;;13.90;15.40;;;;;;4961065;28;20980;-62
2022/12/29 12:28:33;;;;;;;5.93;1.80;;;13.90;15.30;;;;;;4962737;28;20462;-62
2022/12/29 12:31:04;;;;;;;4.60;1.53;;;13.90;15.20;;;;;;4963263;28;20855;-63
2022/12/29 12:33:35;;;;;;;5.37;1.80;;;13.80;15.00;;;;;;4960545;28;20481;-65
2022/12/29 12:36:22;;;;;;;6.37;1.73;;;13.80;15.60;;;;;;4958693;28;20461;-64
2022/12/29 12:38:55;;;;;;;6.20;2.00;;;13.70;15.70;;;;;;4956554;28;20887;-64
2022/12/29 12:41:33;;;;;;;5.30;1.20;;;13.60;15.70;;;;;;4962159;28;20485;-64
2022/12/29 12:44:07;;;;;;;6.17;1.90;;;13.60;16.20;;;;;;4958574;28;20485;-66
2022/12/29 12:47:19;;;;;;;5.73;2.00;;;13.50;16.20;;;;;;4963586;28;20461;-66
2022/12/29 12:50:23;;;;;;;5.60;1.37;;;13.50;15.90;;;;;;4918197;28;20458;-67
2022/12/29 12:53:04;;;;;;;5.83;1.77;;;13.40;15.90;;;;;;4963357;28;20481;-68
2022/12/29 12:55:52;;;;;;;5.27;1.67;;;13.40;16.10;;;;;;4963491;28;21231;-67
2022/12/29 12:58:29;;;;;;;4.00;1.40;;;13.40;16.10;;;;;;4964184;28;20461;-67
2022/12/29 13:01:09;;;;;;;5.63;1.40;;;13.30;16.20;;;;;;4962274;28;20485;-66
2022/12/29 13:03:50;;;;;;;7.20;2.30;;;13.30;16.40;;;;;;4964585;28;20484;-66
2022/12/29 13:06:29;;;;;;;4.40;1.57;;;13.30;16.40;;;;;;4966202;28;20457;-66
2022/12/29 13:09:26;;;;;;;6.70;1.80;;;13.20;16.70;;;;;;4959358;28;20823;-66
2022/12/29 13:12:06;;;;;;;7.17;2.20;;;13.20;17.00;;;;;;4962702;28;20465;-67
2022/12/29 13:14:48;;;;;;;5.27;2.00;;;13.10;17.20;;;;;;4963726;28;20519;-67
2022/12/29 13:17:26;;;;;;;5.73;2.47;;;13.10;17.20;;;;;;4957336;28;20467;-67
2022/12/29 13:19:58;;;;;;;11.07;4.53;;;13.10;16.90;;;;;;4962152;28;20494;-67
2022/12/29 13:22:31;;;;;;;7.03;3.40;;;13.10;17.10;;;;;;4961652;28;21126;-68
2022/12/29 13:25:19;;;;;;;9.50;4.40;;;13.00;17.30;;;;;;4964022;28;20472;-67
2022/12/29 13:27:51;;;;;;;7.63;3.30;;;13.00;17.50;;;;;;4964314;28;20843;-67
2022/12/29 13:30:20;;;;;;;7.00;2.80;;;13.00;17.70;;;;;;4962332;28;20455;-67
2022/12/29 13:32:58;;;;;;;6.47;1.93;;;13.00;17.60;;;;;;4973362;28;21066;-67
2022/12/29 13:35:42;;;;;;;5.77;2.80;;;13.00;17.70;;;;;;4972110;28;20507;-66
2022/12/29 13:38:13;;;;;;;7.80;2.77;;;12.90;17.80;;;;;;4969572;28;20837;-66
2022/12/29 13:40:46;;;;;;;6.13;2.20;;;12.90;18.00;;;;;;4968895;28;20488;-68
2022/12/29 13:43:14;;;;;;;5.30;2.17;;;12.90;18.00;;;;;;4971392;28;20488;-66
2022/12/29 13:45:43;;;;;;;6.40;2.63;;;12.90;18.00;;;;;;4968531;28;20465;-66